Time;durP1;ratioP1;P1;durP2;ratioP2;P2;SDS_P1;SDS_P2;PMS_P1;PMS_P2;Temp;Humidity;BMP_temperature;BMP_pressure;BME280_temperature;BME280_humidity;BME280_pressure;Samples;Min_cycle;Max_cycle;Signal;HPM_P1;HPM_P2
2024/02/01 00:00:28;;;;;;;23.52;20.17;;;6.20;99.90;;;;;;4970512;28;20535;-78
2024/02/01 00:02:55;;;;;;;22.55;20.33;;;6.20;99.90;;;;;;4967428;28;20054;-79
2024/02/01 00:05:22;;;;;;;20.17;18.55;;;6.20;99.90;;;;;;4977032;28;20050;-79
2024/02/01 00:07:48;;;;;;;22.67;20.25;;;6.20;99.90;;;;;;4985390;28;20061;-80
2024/02/01 00:10:15;;;;;;;21.38;19.40;;;6.30;99.90;;;;;;4993052;28;20080;-78
2024/02/01 00:12:42;;;;;;;21.25;19.40;;;6.30;99.90;;;;;;4968649;28;20074;-79
2024/02/01 00:15:09;;;;;;;21.65;19.63;;;6.30;99.90;;;;;;4958188;28;20184;-78
2024/02/01 00:17:36;;;;;;;22.38;20.48;;;6.30;99.90;;;;;;4975140;28;20509;-79
2024/02/01 00:20:04;;;;;;;22.58;20.20;;;6.30;99.90;;;;;;4975588;28;20058;-79
2024/02/01 00:22:30;;;;;;;23.80;21.40;;;6.40;99.90;;;;;;4977722;28;20473;-78
2024/02/01 00:25:00;;;;;;;21.13;19.27;;;6.30;99.90;;;;;;4989211;28;20050;-79
2024/02/01 00:27:28;;;;;;;21.13;19.38;;;6.30;99.90;;;;;;4995744;28;20045;-79
2024/02/01 00:29:55;;;;;;;21.42;19.52;;;6.40;99.90;;;;;;4988780;28;20136;-78
2024/02/01 00:32:22;;;;;;;21.65;19.55;;;6.40;99.90;;;;;;4974588;28;20038;-79
2024/02/01 00:34:48;;;;;;;22.33;19.92;;;6.40;99.90;;;;;;4964405;28;20585;-78
2024/02/01 00:37:16;;;;;;;21.77;19.40;;;6.40;99.90;;;;;;4980785;28;20136;-79
2024/02/01 00:39:43;;;;;;;20.60;18.60;;;6.40;99.90;;;;;;4979603;28;20072;-79
2024/02/01 00:42:12;;;;;;;22.25;18.17;;;6.40;99.90;;;;;;4966489;28;20050;-80
2024/02/01 00:44:39;;;;;;;23.63;19.95;;;6.40;99.90;;;;;;4971709;28;20046;-78
2024/02/01 00:47:07;;;;;;;22.35;19.13;;;6.40;99.90;;;;;;4954876;28;20061;-79
2024/02/01 00:49:34;;;;;;;22.33;20.00;;;6.40;99.90;;;;;;4977753;28;20747;-79
2024/02/01 00:52:02;;;;;;;21.45;17.30;;;6.40;99.90;;;;;;4974342;28;20050;-79
2024/02/01 00:54:30;;;;;;;26.15;18.45;;;6.30;99.90;;;;;;4972478;28;20573;-81
2024/02/01 00:56:56;;;;;;;23.27;17.80;;;6.30;99.90;;;;;;4974279;28;20092;-78
2024/02/01 00:59:23;;;;;;;30.30;19.17;;;6.30;99.90;;;;;;4965273;28;20048;-76
2024/02/01 01:01:53;;;;;;;25.58;17.85;;;6.30;99.90;;;;;;4990199;28;20555;-76
2024/02/01 01:04:20;;;;;;;29.42;18.52;;;6.20;99.90;;;;;;4987628;28;20046;-76
2024/02/01 01:06:46;;;;;;;29.42;20.13;;;6.20;99.90;;;;;;4961295;28;20069;-75
2024/02/01 01:09:13;;;;;;;34.92;19.13;;;6.20;99.90;;;;;;4974661;28;20057;-76
2024/02/01 01:11:40;;;;;;;31.98;19.75;;;6.10;99.90;;;;;;4991364;28;20050;-75
2024/02/01 01:14:07;;;;;;;34.25;20.77;;;6.10;99.90;;;;;;4987470;28;21225;-76
2024/02/01 01:16:34;;;;;;;32.47;19.50;;;6.20;99.90;;;;;;4950746;28;20130;-76
2024/02/01 01:19:01;;;;;;;39.38;22.90;;;6.20;99.90;;;;;;4969316;28;20089;-76
2024/02/01 01:21:28;;;;;;;36.50;21.80;;;6.20;99.90;;;;;;4970829;28;20806;-76
2024/02/01 01:23:55;;;;;;;41.53;22.58;;;6.20;99.90;;;;;;4977728;28;20034;-76
2024/02/01 01:26:24;;;;;;;39.30;23.13;;;6.20;99.90;;;;;;4970950;28;20037;-76
2024/02/01 01:28:52;;;;;;;42.63;25.42;;;6.20;99.90;;;;;;4973461;28;20128;-76
2024/02/01 01:31:18;;;;;;;40.00;24.88;;;6.20;99.90;;;;;;4971356;28;20046;-76
2024/02/01 01:33:45;;;;;;;48.05;27.13;;;6.20;99.90;;;;;;4976484;28;20054;-76
2024/02/01 01:36:12;;;;;;;47.25;26.35;;;6.20;99.90;;;;;;5007274;28;20050;-75
2024/02/01 01:38:40;;;;;;;52.92;27.38;;;6.20;99.90;;;;;;5011440;28;20045;-77
2024/02/01 01:41:06;;;;;;;51.97;29.13;;;6.20;99.90;;;;;;4990133;28;20038;-76
2024/02/01 01:43:33;;;;;;;43.92;26.77;;;6.20;99.90;;;;;;4971765;28;20050;-76
2024/02/01 01:46:04;;;;;;;52.33;27.95;;;6.20;99.90;;;;;;4965533;28;20550;-76
2024/02/01 01:48:33;;;;;;;44.25;25.25;;;6.20;99.90;;;;;;4990358;28;20048;-77
2024/02/01 01:51:02;;;;;;;43.63;24.42;;;6.10;99.90;;;;;;4968118;28;20046;-77
2024/02/01 01:53:31;;;;;;;46.10;27.05;;;6.20;99.90;;;;;;4972293;28;20058;-76
2024/02/01 01:55:59;;;;;;;52.08;27.95;;;6.20;99.90;;;;;;4976874;28;20053;-75
2024/02/01 01:58:28;;;;;;;48.33;29.05;;;6.10;99.90;;;;;;4984911;28;21316;-76
2024/02/01 02:00:57;;;;;;;46.67;25.10;;;6.20;99.90;;;;;;4962658;28;20059;-76
2024/02/01 02:03:29;;;;;;;58.25;30.10;;;6.20;99.90;;;;;;4967582;28;20042;-76
2024/02/01 02:05:56;;;;;;;52.22;30.08;;;6.20;99.90;;;;;;4983775;28;20121;-76
2024/02/01 02:08:23;;;;;;;45.30;26.67;;;6.20;99.90;;;;;;4988251;28;20049;-76
2024/02/01 02:10:51;;;;;;;58.28;32.42;;;6.30;99.90;;;;;;4969535;28;20053;-76
2024/02/01 02:13:18;;;;;;;55.35;30.35;;;6.20;99.90;;;;;;4966979;28;20055;-76
2024/02/01 02:15:44;;;;;;;56.67;32.30;;;6.30;99.90;;;;;;4970144;28;20426;-77
2024/02/01 02:18:11;;;;;;;55.03;30.67;;;6.30;99.90;;;;;;4966372;28;20645;-76
2024/02/01 02:20:41;;;;;;;54.38;30.60;;;6.20;99.90;;;;;;4970181;28;20038;-76
2024/02/01 02:23:12;;;;;;;61.80;34.45;;;6.20;99.90;;;;;;4973231;28;21853;-76
2024/02/01 02:25:39;;;;;;;53.20;31.02;;;6.20;99.90;;;;;;4959456;28;20053;-75
2024/02/01 02:28:06;;;;;;;59.97;31.58;;;6.30;99.90;;;;;;4969686;28;20142;-76
2024/02/01 02:30:33;;;;;;;54.67;33.10;;;6.30;99.90;;;;;;4976579;28;20076;-75
2024/02/01 02:33:01;;;;;;;49.47;28.88;;;6.30;99.90;;;;;;4950206;28;20046;-76
2024/02/01 02:35:28;;;;;;;45.20;28.10;;;6.30;99.90;;;;;;4965474;28;20058;-76
2024/02/01 02:37:55;;;;;;;55.88;32.65;;;6.30;99.90;;;;;;4961010;28;20119;-75
2024/02/01 02:40:23;;;;;;;43.38;25.83;;;6.30;99.90;;;;;;4958852;28;20732;-77
2024/02/01 02:42:50;;;;;;;49.20;29.70;;;6.40;99.90;;;;;;4971840;28;20042;-76
2024/02/01 02:45:17;;;;;;;48.70;30.95;;;6.30;99.90;;;;;;4967276;28;20052;-76
2024/02/01 02:47:47;;;;;;;58.63;32.55;;;6.30;99.90;;;;;;4983604;28;20046;-76
2024/02/01 02:50:15;;;;;;;42.88;27.25;;;6.40;99.90;;;;;;4970600;28;20050;-76
2024/02/01 02:52:44;;;;;;;40.78;24.10;;;6.40;99.90;;;;;;4990746;28;20061;-76
2024/02/01 02:55:11;;;;;;;50.08;30.55;;;6.40;99.90;;;;;;4967028;28;20289;-76
2024/02/01 02:57:38;;;;;;;43.72;27.83;;;6.50;99.90;;;;;;4953555;28;20042;-76
2024/02/01 03:00:05;;;;;;;48.97;28.30;;;6.50;99.90;;;;;;4979925;28;20046;-77
2024/02/01 03:02:33;;;;;;;52.13;30.25;;;6.50;99.90;;;;;;4975910;28;20054;-77
2024/02/01 03:05:01;;;;;;;46.35;27.80;;;6.50;99.90;;;;;;4984745;28;20054;-77
2024/02/01 03:07:29;;;;;;;50.45;28.10;;;6.50;99.90;;;;;;4991238;28;20050;-77
2024/02/01 03:09:56;;;;;;;51.67;29.38;;;6.50;99.90;;;;;;4964407;28;20042;-77
2024/02/01 03:12:22;;;;;;;48.20;28.40;;;6.50;99.90;;;;;;4950049;28;20049;-77
2024/02/01 03:14:50;;;;;;;45.97;28.27;;;6.50;99.90;;;;;;4967709;28;20054;-78
2024/02/01 03:17:18;;;;;;;48.50;27.08;;;6.60;99.90;;;;;;4963906;28;20045;-77
2024/02/01 03:19:50;;;;;;;55.45;28.55;;;6.60;99.90;;;;;;4975399;28;20137;-77
2024/02/01 03:22:24;;;;;;;50.58;28.02;;;6.60;99.90;;;;;;4985911;28;20058;-76
2024/02/01 03:25:00;;;;;;;48.80;27.95;;;6.70;99.90;;;;;;5015199;23;20996;-76
2024/02/01 03:27:28;;;;;;;48.15;27.05;;;6.60;99.90;;;;;;5016629;28;20055;-76
2024/02/01 03:29:58;;;;;;;40.72;24.42;;;6.70;99.90;;;;;;5012565;28;20044;-75
2024/02/01 03:32:29;;;;;;;62.83;29.23;;;6.70;99.90;;;;;;5034171;28;20052;-75
2024/02/01 03:34:57;;;;;;;55.88;30.58;;;6.70;99.90;;;;;;5031967;28;20048;-76
2024/02/01 03:37:27;;;;;;;47.28;27.25;;;6.80;99.90;;;;;;5015501;28;20046;-76
2024/02/01 03:39:54;;;;;;;56.45;30.02;;;6.70;99.90;;;;;;5020554;28;20048;-77
2024/02/01 03:42:20;;;;;;;55.40;29.38;;;6.80;99.90;;;;;;5040081;28;20064;-76
2024/02/01 03:44:47;;;;;;;51.30;28.60;;;6.80;99.90;;;;;;5021629;28;20536;-76
2024/02/01 03:47:14;;;;;;;56.80;28.83;;;6.80;99.90;;;;;;5025855;28;20041;-76
2024/02/01 03:49:41;;;;;;;49.60;28.02;;;6.80;99.90;;;;;;5032390;28;20046;-77
2024/02/01 03:52:09;;;;;;;62.90;30.35;;;6.80;99.90;;;;;;5021253;28;20052;-76
2024/02/01 03:54:37;;;;;;;61.90;32.38;;;6.80;99.90;;;;;;5043810;28;20040;-77
2024/02/01 03:57:05;;;;;;;67.97;32.60;;;6.80;99.90;;;;;;5019006;28;20119;-77
2024/02/01 03:59:32;;;;;;;67.35;34.83;;;6.80;99.90;;;;;;5022078;28;20033;-77
2024/02/01 04:02:03;;;;;;;74.05;34.58;;;6.80;99.90;;;;;;5018294;28;20073;-77
2024/02/01 04:04:31;;;;;;;61.97;30.95;;;6.80;99.90;;;;;;5022816;28;20069;-77
2024/02/01 04:06:59;;;;;;;71.57;33.53;;;6.80;99.90;;;;;;5038649;28;20571;-77
2024/02/01 04:09:26;;;;;;;72.60;33.65;;;6.80;99.90;;;;;;5035616;28;20111;-76
2024/02/01 04:11:56;;;;;;;74.15;32.17;;;6.90;99.90;;;;;;5020845;28;20053;-77
2024/02/01 04:14:24;;;;;;;74.60;34.45;;;6.90;99.90;;;;;;5039088;28;21009;-77
2024/02/01 04:16:51;;;;;;;78.40;35.83;;;6.90;99.90;;;;;;5018993;28;20520;-77
2024/02/01 04:19:19;;;;;;;78.25;36.88;;;6.90;99.90;;;;;;5020109;28;20056;-76
2024/02/01 04:21:48;;;;;;;58.15;28.60;;;7.00;99.90;;;;;;5040276;28;20141;-77
2024/02/01 04:24:16;;;;;;;70.53;35.10;;;7.00;99.90;;;;;;5016065;28;20052;-77
2024/02/01 04:26:45;;;;;;;64.03;29.50;;;7.00;99.90;;;;;;5007498;28;20049;-76
2024/02/01 04:29:13;;;;;;;75.00;33.78;;;6.90;99.90;;;;;;5032823;28;20746;-76
2024/02/01 04:31:41;;;;;;;87.60;37.47;;;6.90;99.90;;;;;;5002498;28;20041;-76
2024/02/01 04:34:09;;;;;;;75.35;34.33;;;6.90;99.90;;;;;;5005992;28;20053;-76
2024/02/01 04:36:37;;;;;;;87.63;37.88;;;7.00;99.90;;;;;;5020614;28;20095;-76
2024/02/01 04:39:08;;;;;;;79.32;35.35;;;7.10;99.90;;;;;;5031587;28;20099;-76
2024/02/01 04:41:38;;;;;;;90.45;39.08;;;7.10;99.90;;;;;;5020462;28;20033;-77
2024/02/01 04:44:07;;;;;;;93.47;38.80;;;7.10;99.90;;;;;;5008227;28;20061;-76
2024/02/01 04:46:34;;;;;;;92.05;41.15;;;7.10;99.90;;;;;;4995747;28;20038;-76
2024/02/01 04:49:02;;;;;;;96.95;41.90;;;7.10;99.90;;;;;;5017629;28;20053;-76
2024/02/01 04:51:30;;;;;;;95.82;40.17;;;7.10;99.90;;;;;;5020229;28;20128;-76
2024/02/01 04:53:57;;;;;;;108.18;42.92;;;7.10;99.90;;;;;;5004010;28;20068;-77
2024/02/01 04:56:24;;;;;;;111.28;44.60;;;7.10;99.90;;;;;;5024355;28;20505;-77
2024/02/01 04:58:51;;;;;;;114.50;45.13;;;7.10;99.90;;;;;;5029849;28;20056;-77
2024/02/01 05:01:18;;;;;;;81.53;37.17;;;7.10;99.90;;;;;;5023434;28;20068;-76
2024/02/01 05:03:45;;;;;;;81.22;34.85;;;7.10;99.90;;;;;;5052680;28;20060;-75
2024/02/01 05:06:12;;;;;;;62.35;28.10;;;7.10;99.90;;;;;;5038330;28;20049;-76
2024/02/01 05:08:39;;;;;;;69.75;29.75;;;7.10;99.90;;;;;;5032189;28;20758;-75
2024/02/01 05:11:10;;;;;;;80.60;35.67;;;7.10;99.90;;;;;;5015819;28;20555;-76
2024/02/01 05:13:37;;;;;;;96.20;38.03;;;7.10;99.90;;;;;;5022156;28;20540;-76
2024/02/01 05:16:04;;;;;;;114.13;45.70;;;7.10;99.90;;;;;;5014098;28;20045;-76
2024/02/01 05:18:31;;;;;;;115.32;48.55;;;7.10;99.90;;;;;;5020616;28;20670;-76
2024/02/01 05:20:58;;;;;;;103.68;44.00;;;7.10;99.90;;;;;;5019579;28;20060;-76
2024/02/01 05:23:25;;;;;;;109.25;49.40;;;7.20;99.90;;;;;;5006930;28;20037;-76
2024/02/01 05:25:52;;;;;;;111.60;48.53;;;7.10;99.90;;;;;;5037465;28;20045;-77
2024/02/01 05:28:19;;;;;;;97.55;43.05;;;7.10;99.90;;;;;;5034351;28;20045;-77
2024/02/01 05:30:45;;;;;;;109.30;47.03;;;7.10;99.90;;;;;;5037419;28;20183;-77
2024/02/01 05:33:13;;;;;;;114.78;46.53;;;7.10;99.90;;;;;;5013624;28;20041;-77
2024/02/01 05:35:41;;;;;;;125.55;50.88;;;7.10;99.90;;;;;;5014149;28;20061;-77
2024/02/01 05:38:08;;;;;;;127.57;55.50;;;7.10;99.90;;;;;;5015934;28;20151;-76
2024/02/01 05:40:36;;;;;;;122.60;53.45;;;7.20;99.90;;;;;;5021458;28;20045;-76
2024/02/01 05:43:04;;;;;;;134.00;54.45;;;7.10;99.90;;;;;;5010165;28;20052;-78
2024/02/01 05:45:31;;;;;;;105.75;47.05;;;7.10;99.90;;;;;;5007266;28;20045;-78
2024/02/01 05:47:58;;;;;;;136.63;51.05;;;7.10;99.90;;;;;;5013447;28;20436;-78
2024/02/01 05:50:26;;;;;;;117.90;51.08;;;7.10;99.90;;;;;;5014320;28;20064;-78
2024/02/01 05:52:54;;;;;;;103.82;43.63;;;7.10;99.90;;;;;;5013493;28;20049;-77
2024/02/01 05:55:21;;;;;;;113.32;46.70;;;7.10;99.90;;;;;;5005520;28;20029;-78
2024/02/01 05:57:47;;;;;;;123.28;49.75;;;7.10;99.90;;;;;;5019479;28;20068;-78
2024/02/01 06:00:21;;;;;;;104.60;46.95;;;7.10;99.90;;;;;;5009375;28;20030;-77
2024/02/01 06:02:49;;;;;;;118.28;51.47;;;7.10;99.90;;;;;;5013603;28;20080;-78
2024/02/01 06:05:19;;;;;;;100.88;44.35;;;7.10;99.90;;;;;;5010125;28;20583;-78
2024/02/01 06:07:46;;;;;;;106.95;46.92;;;7.10;99.90;;;;;;5006854;28;20061;-78
2024/02/01 06:10:12;;;;;;;85.57;41.47;;;7.10;99.90;;;;;;5017125;28;20041;-78
2024/02/01 06:12:40;;;;;;;104.05;44.80;;;7.00;99.90;;;;;;5014936;28;20064;-77
2024/02/01 06:15:07;;;;;;;94.72;44.85;;;7.10;99.90;;;;;;5002042;28;20045;-77
2024/02/01 06:17:34;;;;;;;87.78;44.15;;;7.00;99.90;;;;;;5009188;28;20049;-77
2024/02/01 06:20:02;;;;;;;90.82;43.65;;;7.10;99.90;;;;;;5016807;28;20152;-76
2024/02/01 06:22:30;;;;;;;85.70;42.28;;;7.10;99.90;;;;;;5005920;28;20077;-78
2024/02/01 06:24:57;;;;;;;92.07;41.58;;;7.00;99.90;;;;;;5009856;28;20056;-77
2024/02/01 06:27:24;;;;;;;84.50;41.63;;;7.00;99.90;;;;;;5015021;28;20060;-78
2024/02/01 06:29:51;;;;;;;88.55;40.63;;;7.00;99.90;;;;;;5017023;28;20171;-77
2024/02/01 06:32:20;;;;;;;73.10;36.80;;;7.00;99.90;;;;;;5010252;28;20715;-77
2024/02/01 06:34:59;;;;;;;71.45;33.80;;;6.90;99.90;;;;;;5011772;28;20046;-77
2024/02/01 06:37:29;;;;;;;59.95;29.42;;;6.90;99.90;;;;;;5050344;28;20523;-78
2024/02/01 06:43:08;;;;;;;61.53;31.98;;;6.80;99.90;;;;;;5033370;28;20052;-77
2024/02/01 06:45:44;;;;;;;64.28;33.30;;;6.90;99.90;;;;;;5028342;28;20049;-77
2024/02/01 06:48:12;;;;;;;71.55;33.60;;;6.90;99.90;;;;;;5037668;28;20052;-77
2024/02/01 06:50:54;;;;;;;60.63;28.77;;;6.90;99.90;;;;;;5041137;28;20047;-77
2024/02/01 06:53:23;;;;;;;47.75;25.80;;;6.90;99.90;;;;;;5033964;28;20163;-78
2024/02/01 06:55:56;;;;;;;50.65;25.55;;;6.80;99.90;;;;;;5025221;28;20048;-78
2024/02/01 06:58:39;;;;;;;50.30;27.35;;;6.80;99.90;;;;;;5054667;28;20052;-79
2024/02/01 07:01:33;;;;;;;43.45;23.15;;;6.80;99.90;;;;;;5041922;28;20048;-77
2024/02/01 07:04:16;;;;;;;44.92;24.30;;;6.80;99.90;;;;;;5054554;28;20135;-77
2024/02/01 07:09:37;;;;;;;37.67;20.33;;;6.60;99.90;;;;;;5059115;28;20102;-78
2024/02/01 07:13:07;;;;;;;34.80;18.85;;;6.50;99.90;;;;;;5038919;28;20044;-77
2024/02/01 07:15:30;;;;;;;38.20;20.35;;;6.50;99.90;;;;;;5048341;28;20122;-77
2024/02/01 07:18:03;;;;;;;29.83;17.35;;;6.40;99.90;;;;;;5018659;28;20056;-78
2024/02/01 07:20:46;;;;;;;34.88;20.00;;;6.50;99.90;;;;;;5042182;28;20496;-77
2024/02/01 07:25:48;;;;;;;26.75;16.88;;;6.40;99.90;;;;;;5054655;28;20048;-79
2024/02/01 07:58:43;;;;;;;26.90;10.68;;;6.20;99.90;;;;;;5037600;28;19927;-77
2024/02/01 08:01:17;;;;;;;18.60;10.63;;;6.10;99.90;;;;;;5031099;28;20664;-77
2024/02/01 08:04:01;;;;;;;20.17;10.15;;;6.10;99.90;;;;;;5039161;28;20632;-77
2024/02/01 08:09:14;;;;;;;25.08;11.45;;;6.10;99.90;;;;;;5055508;28;20511;-78
2024/02/01 08:11:42;;;;;;;28.95;12.52;;;6.10;99.90;;;;;;5046965;28;20478;-77
2024/02/01 08:14:13;;;;;;;24.88;11.05;;;6.10;99.90;;;;;;5040552;28;20064;-77
2024/02/01 08:16:42;;;;;;;23.38;11.85;;;6.10;99.90;;;;;;5039212;28;20059;-78
2024/02/01 08:19:10;;;;;;;26.67;12.43;;;6.00;99.90;;;;;;5045180;28;20036;-77
2024/02/01 08:21:51;;;;;;;23.92;11.25;;;6.00;99.90;;;;;;5045055;28;20047;-77
2024/02/01 08:24:22;;;;;;;27.25;11.70;;;5.90;99.90;;;;;;5035846;28;20059;-78
2024/02/01 08:26:50;;;;;;;30.83;15.07;;;5.80;99.90;;;;;;5035192;28;20074;-77
2024/02/01 08:29:18;;;;;;;25.63;11.25;;;5.80;99.90;;;;;;5038171;28;20067;-76
2024/02/01 08:31:50;;;;;;;28.23;11.40;;;5.70;99.90;;;;;;5043323;28;20036;-76
2024/02/01 08:34:16;;;;;;;37.35;11.68;;;5.80;99.90;;;;;;5043784;28;20044;-79
2024/02/01 08:36:43;;;;;;;22.42;11.55;;;5.80;99.90;;;;;;5041708;28;20040;-79
2024/02/01 08:39:11;;;;;;;31.27;10.00;;;5.70;99.90;;;;;;5049378;28;20067;-78
2024/02/01 08:41:39;;;;;;;28.38;10.15;;;5.70;99.90;;;;;;5029071;28;20060;-79
2024/02/01 08:44:06;;;;;;;27.10;9.77;;;5.70;99.90;;;;;;5024806;28;20149;-79
2024/02/01 08:46:33;;;;;;;31.33;11.18;;;5.70;99.90;;;;;;5044047;28;20655;-79
2024/02/01 08:49:00;;;;;;;42.05;11.45;;;5.60;99.90;;;;;;5043220;28;20052;-79
2024/02/01 08:51:29;;;;;;;29.77;10.82;;;5.60;99.90;;;;;;5042713;28;20647;-79
2024/02/01 08:53:55;;;;;;;27.02;11.40;;;5.70;99.90;;;;;;5033304;28;20033;-78
2024/02/01 08:56:22;;;;;;;39.13;11.25;;;5.70;99.90;;;;;;5024311;28;20155;-79
2024/02/01 08:58:49;;;;;;;47.88;11.43;;;5.90;99.90;;;;;;5041173;28;20136;-78
2024/02/01 09:01:27;;;;;;;27.05;9.77;;;5.90;99.90;;;;;;5062734;28;20086;-78
2024/02/01 09:03:54;;;;;;;30.02;9.93;;;5.90;99.90;;;;;;5051621;28;20053;-79
2024/02/01 09:06:21;;;;;;;45.08;12.40;;;5.80;99.90;;;;;;5022560;28;20172;-79
2024/02/01 09:08:49;;;;;;;34.20;10.57;;;5.80;99.90;;;;;;5063689;28;20053;-78
2024/02/01 09:11:17;;;;;;;39.58;11.40;;;5.80;99.90;;;;;;5037489;28;20037;-78
2024/02/01 09:13:46;;;;;;;43.22;12.32;;;5.90;99.90;;;;;;5046810;28;20040;-77
2024/02/01 09:16:21;;;;;;;41.67;9.48;;;5.80;99.90;;;;;;5020851;28;20106;-75
2024/02/01 09:18:48;;;;;;;37.47;9.65;;;5.90;99.90;;;;;;5064338;28;20764;-75
2024/02/01 09:21:18;;;;;;;47.55;10.07;;;5.80;99.90;;;;;;5061621;28;20593;-75
2024/02/01 09:23:45;;;;;;;45.38;11.98;;;5.80;99.90;;;;;;5044298;28;20048;-76
2024/02/01 09:26:12;;;;;;;34.78;10.20;;;5.80;99.90;;;;;;5025928;28;20515;-75
2024/02/01 09:28:40;;;;;;;34.33;10.75;;;5.80;99.90;;;;;;5046300;28;20059;-74
2024/02/01 09:31:31;;;;;;;31.08;11.05;;;5.80;99.90;;;;;;5040349;28;20471;-75
2024/02/01 09:33:56;;;;;;;39.88;11.80;;;5.90;99.90;;;;;;5029800;28;20475;-76
2024/02/01 09:36:27;;;;;;;40.80;11.50;;;6.00;99.90;;;;;;5037986;28;20047;-76
2024/02/01 09:38:54;;;;;;;43.70;12.73;;;5.90;99.90;;;;;;5046208;28;20045;-76
2024/02/01 09:41:22;;;;;;;38.60;10.95;;;5.90;99.90;;;;;;5040719;28;20728;-76
2024/02/01 09:43:52;;;;;;;37.35;12.98;;;6.00;99.90;;;;;;5058165;28;20762;-77
2024/02/01 09:46:20;;;;;;;36.17;11.82;;;5.90;99.90;;;;;;5012477;28;20392;-76
2024/02/01 09:48:49;;;;;;;36.92;12.70;;;5.90;99.90;;;;;;5061191;28;20048;-75
2024/02/01 09:51:19;;;;;;;42.42;13.93;;;5.90;99.90;;;;;;5057446;28;20563;-77
2024/02/01 09:53:48;;;;;;;49.97;12.95;;;6.00;99.90;;;;;;5021088;28;20892;-76
2024/02/01 09:56:16;;;;;;;39.40;14.63;;;6.00;99.90;;;;;;5038738;28;20123;-75
2024/02/01 09:58:43;;;;;;;43.92;13.38;;;6.10;99.90;;;;;;5058663;28;20043;-75
2024/02/01 10:01:11;;;;;;;49.30;13.15;;;6.20;99.90;;;;;;5046733;28;20036;-76
2024/02/01 10:03:42;;;;;;;38.47;13.20;;;6.40;99.90;;;;;;5039035;28;20091;-77
2024/02/01 10:06:10;;;;;;;24.63;13.43;;;6.30;99.90;;;;;;5039756;28;20591;-75
2024/02/01 10:08:38;;;;;;;41.20;15.77;;;6.30;99.90;;;;;;5054473;28;20037;-76
2024/02/01 10:11:05;;;;;;;46.88;15.52;;;6.20;99.90;;;;;;5037584;28;20059;-76
2024/02/01 10:13:35;;;;;;;41.85;15.02;;;6.30;99.90;;;;;;5055027;28;20040;-75
2024/02/01 10:16:02;;;;;;;39.20;14.55;;;6.40;99.90;;;;;;5044222;28;20567;-77
2024/02/01 10:18:29;;;;;;;37.17;16.30;;;6.30;99.90;;;;;;5039158;28;20045;-74
2024/02/01 10:20:58;;;;;;;38.33;15.85;;;6.10;99.90;;;;;;5045896;28;20136;-76
2024/02/01 10:23:29;;;;;;;39.45;15.68;;;6.20;99.90;;;;;;5054711;28;20262;-75
2024/02/01 10:25:56;;;;;;;34.75;15.15;;;6.20;99.90;;;;;;5035860;28;20503;-77
2024/02/01 10:28:33;;;;;;;31.92;14.50;;;6.30;99.90;;;;;;5022114;28;20956;-75
2024/02/01 10:31:07;;;;;;;34.92;15.48;;;6.40;99.90;;;;;;5036767;28;20055;-76
2024/02/01 10:33:36;;;;;;;41.38;16.85;;;6.30;99.90;;;;;;5052880;28;20048;-78
2024/02/01 10:36:08;;;;;;;43.45;16.70;;;6.20;99.90;;;;;;5025162;28;20068;-76
2024/02/01 10:38:42;;;;;;;41.80;17.27;;;6.30;99.90;;;;;;5039326;28;20054;-77
2024/02/01 10:41:14;;;;;;;38.80;16.00;;;6.30;99.90;;;;;;5038799;28;20048;-77
2024/02/01 10:43:45;;;;;;;33.15;17.48;;;6.40;99.90;;;;;;5031140;28;20158;-75
2024/02/01 10:46:27;;;;;;;42.58;16.98;;;6.40;99.90;;;;;;5025224;28;20051;-76
2024/02/01 10:49:02;;;;;;;38.50;15.77;;;6.40;99.90;;;;;;5017982;28;20079;-76
2024/02/01 10:51:31;;;;;;;48.00;17.30;;;6.50;99.90;;;;;;5047590;28;20043;-76
2024/02/01 10:53:59;;;;;;;43.45;17.52;;;6.60;99.90;;;;;;5033644;28;20663;-74
2024/02/01 10:56:29;;;;;;;60.20;18.85;;;6.70;99.90;;;;;;5046971;28;20082;-75
2024/02/01 10:59:07;;;;;;;35.70;18.38;;;6.60;99.90;;;;;;5056336;28;20045;-77
2024/02/01 11:01:34;;;;;;;42.55;20.60;;;6.80;99.90;;;;;;5032397;28;20685;-77
2024/02/01 11:04:06;;;;;;;43.80;19.52;;;7.00;99.90;;;;;;5052730;28;20036;-77
2024/02/01 11:06:34;;;;;;;41.75;19.90;;;7.20;99.90;;;;;;5041875;28;20045;-76
2024/02/01 11:09:18;;;;;;;40.08;22.70;;;7.50;99.90;;;;;;5042546;28;20466;-76
2024/02/01 11:11:49;;;;;;;41.28;21.35;;;7.40;99.90;;;;;;5022193;28;20404;-77
2024/02/01 11:14:32;;;;;;;51.40;21.73;;;7.20;99.90;;;;;;5026724;28;20045;-77
2024/02/01 11:17:02;;;;;;;35.75;23.38;;;7.30;99.90;;;;;;5051436;28;20131;-76
2024/02/01 11:19:34;;;;;;;39.83;22.77;;;7.50;99.90;;;;;;5024439;28;20055;-75
2024/02/01 11:22:07;;;;;;;41.58;22.70;;;7.50;99.90;;;;;;5052811;28;20079;-77
2024/02/01 11:24:35;;;;;;;41.88;24.48;;;7.50;99.90;;;;;;5041775;28;20037;-75
2024/02/01 11:27:19;;;;;;;32.35;22.80;;;7.20;99.90;;;;;;5023700;28;20049;-76
2024/02/01 11:29:50;;;;;;;40.03;22.80;;;6.70;99.90;;;;;;5033686;28;20041;-76
2024/02/01 11:32:22;;;;;;;40.90;22.50;;;6.40;99.90;;;;;;5023940;28;20066;-76
2024/02/01 11:34:50;;;;;;;35.72;20.35;;;6.30;99.90;;;;;;5052291;28;20194;-77
2024/02/01 11:37:18;;;;;;;40.38;20.35;;;6.20;99.90;;;;;;5031975;28;20053;-76
2024/02/01 11:39:49;;;;;;;33.67;19.40;;;6.00;99.90;;;;;;5052952;28;20056;-77
2024/02/01 11:42:16;;;;;;;34.28;22.38;;;6.00;99.90;;;;;;5036426;28;20040;-75
2024/02/01 11:45:00;;;;;;;34.63;20.33;;;6.00;99.90;;;;;;5027154;28;20053;-75
2024/02/01 11:47:33;;;;;;;46.00;21.42;;;6.10;99.90;;;;;;5031958;28;20048;-75
2024/02/01 11:50:02;;;;;;;40.05;20.17;;;6.00;99.90;;;;;;5034248;28;20413;-76
2024/02/01 11:52:50;;;;;;;42.88;22.25;;;6.10;99.90;;;;;;5043150;28;20040;-76
2024/02/01 11:55:17;;;;;;;37.33;19.77;;;6.20;99.90;;;;;;5042275;28;20045;-76
2024/02/01 11:57:57;;;;;;;37.58;22.17;;;6.30;99.90;;;;;;5032589;28;20083;-76
2024/02/01 12:00:24;;;;;;;34.92;21.42;;;6.40;99.90;;;;;;5020541;28;20049;-77
2024/02/01 12:03:10;;;;;;;33.67;21.80;;;6.40;99.90;;;;;;5028782;28;20739;-76
2024/02/01 12:05:37;;;;;;;39.40;21.13;;;6.50;99.90;;;;;;5056031;28;20055;-77
2024/02/01 12:08:06;;;;;;;35.67;21.92;;;6.60;99.90;;;;;;5052444;28;20055;-76
2024/02/01 12:10:34;;;;;;;42.22;21.58;;;6.90;99.90;;;;;;5040728;28;20040;-77
2024/02/01 12:13:03;;;;;;;37.38;21.83;;;7.20;99.90;;;;;;5040611;28;20132;-77
2024/02/01 12:15:36;;;;;;;38.63;21.88;;;7.50;99.90;;;;;;5035315;28;20054;-76
2024/02/01 12:18:08;;;;;;;33.85;22.63;;;7.50;99.90;;;;;;5014931;28;20051;-76
2024/02/01 12:20:36;;;;;;;36.85;23.52;;;7.50;99.90;;;;;;5048956;28;20458;-76
2024/02/01 12:23:03;;;;;;;34.03;23.73;;;7.70;99.90;;;;;;5048956;28;20052;-76
2024/02/01 12:25:33;;;;;;;34.00;23.52;;;7.70;99.90;;;;;;5035634;28;20041;-76
2024/02/01 12:28:00;;;;;;;41.35;22.75;;;7.80;99.90;;;;;;5032234;28;20063;-75
2024/02/01 12:30:28;;;;;;;36.47;24.42;;;7.70;99.90;;;;;;5032978;28;20056;-77
2024/02/01 12:32:55;;;;;;;33.72;21.25;;;7.50;99.90;;;;;;5031369;28;20056;-78
2024/02/01 12:35:23;;;;;;;34.10;24.13;;;7.20;99.90;;;;;;5048642;28;20163;-77
2024/02/01 12:37:50;;;;;;;33.65;23.95;;;6.90;99.90;;;;;;5032116;28;20052;-75
2024/02/01 12:40:17;;;;;;;34.00;24.00;;;6.70;99.90;;;;;;5040170;28;20052;-79
2024/02/01 12:42:46;;;;;;;30.35;24.10;;;6.70;99.90;;;;;;5042015;28;20172;-75
2024/02/01 12:45:19;;;;;;;30.17;22.52;;;6.70;99.90;;;;;;5038354;28;20256;-78
2024/02/01 12:47:51;;;;;;;33.28;24.45;;;6.70;99.90;;;;;;5037327;28;20207;-76
2024/02/01 12:50:20;;;;;;;33.88;22.65;;;6.80;99.90;;;;;;5056262;28;20630;-77
2024/02/01 12:52:47;;;;;;;32.05;23.30;;;6.80;99.90;;;;;;5036919;28;20195;-75
2024/02/01 12:55:17;;;;;;;34.47;23.35;;;6.70;99.90;;;;;;5040480;28;20041;-77
2024/02/01 12:57:46;;;;;;;36.38;25.45;;;6.60;99.90;;;;;;5038009;28;20055;-77
2024/02/01 13:00:14;;;;;;;30.88;22.67;;;6.60;99.90;;;;;;5035422;28;20086;-76
2024/02/01 13:02:41;;;;;;;30.58;23.65;;;6.50;99.90;;;;;;5036608;28;20052;-77
2024/02/01 13:05:09;;;;;;;45.45;23.40;;;6.30;99.90;;;;;;5058558;28;20045;-75
2024/02/01 13:07:37;;;;;;;32.75;20.42;;;6.30;99.90;;;;;;5034898;28;20045;-75
2024/02/01 13:10:07;;;;;;;28.92;22.25;;;6.50;99.90;;;;;;5049830;28;20136;-76
2024/02/01 13:12:35;;;;;;;34.78;22.20;;;6.60;99.90;;;;;;5046034;28;20056;-75
2024/02/01 13:15:05;;;;;;;34.53;22.00;;;6.70;99.90;;;;;;5028368;28;20630;-75
2024/02/01 13:17:34;;;;;;;35.03;22.60;;;6.70;99.90;;;;;;5053705;28;20045;-76
2024/02/01 13:20:19;;;;;;;27.73;21.17;;;6.60;99.90;;;;;;5039943;28;20139;-76
2024/02/01 13:22:49;;;;;;;39.67;21.73;;;6.70;99.90;;;;;;5034430;28;20525;-75
2024/02/01 13:25:19;;;;;;;29.45;22.25;;;6.80;99.90;;;;;;5049488;28;20048;-76
2024/02/01 13:27:48;;;;;;;38.17;23.52;;;6.80;99.90;;;;;;5038502;28;20052;-76